createdAt,value
2019-05-07T00:00:53.069Z,80.40
2019-05-07T00:03:27.212Z,80.60
2019-05-07T00:05:59.987Z,80.70
2019-05-07T00:08:34.128Z,80.70
2019-05-07T00:11:06.738Z,80.70
2019-05-07T00:13:39.148Z,80.80
2019-05-07T00:16:13.070Z,80.80
2019-05-07T00:18:44.680Z,80.80
2019-05-07T00:21:19.108Z,80.70
2019-05-07T00:23:52.689Z,80.20
2019-05-07T00:26:25.375Z,80.40
2019-05-07T00:28:58.628Z,80.60
2019-05-07T00:31:32.608Z,80.60
2019-05-07T00:34:07.108Z,80.40
2019-05-07T00:36:42.037Z,80.40
2019-05-07T00:39:21.949Z,80.10
2019-05-07T00:41:58.222Z,80.20
2019-05-07T00:44:32.777Z,80.10
2019-05-07T00:47:04.876Z,79.70
2019-05-07T00:49:37.664Z,79.90
2019-05-07T00:52:12.214Z,79.70
2019-05-07T00:54:44.521Z,79.80
2019-05-07T00:57:15.892Z,79.60
2019-05-07T00:59:52.334Z,79.60
2019-05-07T01:02:24.563Z,79.60
2019-05-07T01:04:57.468Z,79.20
2019-05-07T01:07:28.970Z,79.00
2019-05-07T01:10:02.246Z,78.50
2019-05-07T01:12:36.706Z,78.20
2019-05-07T01:15:12.670Z,78.20
2019-05-07T01:17:43.223Z,78.00
2019-05-07T01:20:17.330Z,77.40
2019-05-07T01:22:54.414Z,77.30
2019-05-07T01:25:25.269Z,77.20
2019-05-07T01:27:59.236Z,77.00
2019-05-07T01:30:32.452Z,76.80
2019-05-07T01:33:06.624Z,77.00
2019-05-07T01:35:45.609Z,75.90
2019-05-07T01:38:19.818Z,76.10
2019-05-07T01:40:57.851Z,76.10
2019-05-07T01:43:32.031Z,75.50
2019-05-07T01:46:03.356Z,75.30
2019-05-07T01:48:37.834Z,75.50
2019-05-07T01:51:12.668Z,75.30
2019-05-07T01:53:46.981Z,75.10
2019-05-07T01:56:18.630Z,74.70
2019-05-07T01:58:52.793Z,74.70
2019-05-07T02:01:25.584Z,74.40
2019-05-07T02:04:03.395Z,73.70
2019-05-07T02:06:53.170Z,73.60
2019-05-07T02:09:28.154Z,73.40
2019-05-07T02:12:06.903Z,73.30
2019-05-07T02:14:39.439Z,72.70
2019-05-07T02:17:13.676Z,72.60
2019-05-07T02:19:45.781Z,72.90
2019-05-07T02:22:18.623Z,73.20
2019-05-07T02:24:52.303Z,72.30
2019-05-07T02:27:24.934Z,71.80
2019-05-07T02:29:58.784Z,71.90
2019-05-07T02:32:33.421Z,72.30
2019-05-07T02:35:04.375Z,72.10
2019-05-07T02:37:48.388Z,71.50
2019-05-07T02:40:13.980Z,71.10
2019-05-07T02:42:44.369Z,70.10
2019-05-07T02:45:18.648Z,69.70
2019-05-07T02:47:52.517Z,69.30
2019-05-07T10:41:35.699Z,61.70
2019-05-07T10:44:11.909Z,62.30
2019-05-07T10:47:02.077Z,62.60
2019-05-07T10:49:36.306Z,63.70
2019-05-07T10:52:09.270Z,63.40
2019-05-07T10:54:42.271Z,62.90
2019-05-07T10:57:13.628Z,63.50
2019-05-07T10:59:49.016Z,63.40
2019-05-07T11:02:24.561Z,64.60
2019-05-07T11:05:02.256Z,63.60
2019-05-07T11:07:35.817Z,63.90
2019-05-07T11:10:12.195Z,64.60
2019-05-07T11:12:43.986Z,64.90
2019-05-07T11:15:15.553Z,65.00
2019-05-07T11:17:53.285Z,65.70
2019-05-07T11:20:26.618Z,65.40
2019-05-07T11:22:58.161Z,67.50
2019-05-07T11:25:29.645Z,67.00
2019-05-07T11:28:04.813Z,67.50
2019-05-07T11:30:38.452Z,68.10
2019-05-07T11:33:13.785Z,68.70
2019-05-07T11:35:46.746Z,68.30
2019-05-07T11:38:22.243Z,67.30
2019-05-07T11:40:55.892Z,67.20
2019-05-07T11:43:48.430Z,66.90
2019-05-07T11:46:22.780Z,67.10
2019-05-07T11:49:05.975Z,68.50
2019-05-07T11:51:42.505Z,67.50
2019-05-07T11:54:21.642Z,67.20
2019-05-07T11:56:55.473Z,67.10
2019-05-07T11:59:29.947Z,66.80
2019-05-07T12:02:05.061Z,68.80
2019-05-07T12:04:36.973Z,68.80
2019-05-07T12:07:09.126Z,69.30
2019-05-07T12:09:41.803Z,68.30
2019-05-07T12:12:14.734Z,68.80
2019-05-07T12:14:51.331Z,69.20
2019-05-07T12:17:24.836Z,69.30
2019-05-07T12:19:58.578Z,68.20
2019-05-07T12:22:34.258Z,69.20
2019-05-07T12:25:07.705Z,68.80
2019-05-07T12:27:40.168Z,68.30
2019-05-07T12:30:14.868Z,68.10
2019-05-07T12:32:56.698Z,69.00
2019-05-07T12:35:30.986Z,69.10
2019-05-07T12:38:03.948Z,68.70
2019-05-07T12:40:35.512Z,70.00
2019-05-07T12:43:10.557Z,69.60
2019-05-07T12:45:42.936Z,69.80
2019-05-07T12:48:16.420Z,69.90
2019-05-07T12:50:49.468Z,69.60
2019-05-07T12:53:39.316Z,69.80
2019-05-07T12:56:13.913Z,70.20
2019-05-07T12:58:45.603Z,70.50
2019-05-07T13:01:25.275Z,70.30
2019-05-07T13:03:59.384Z,70.10
2019-05-07T13:06:32.614Z,70.00
2019-05-07T13:09:05.344Z,69.80
2019-05-07T13:11:56.553Z,69.90
2019-05-07T13:14:31.200Z,70.30
2019-05-07T13:17:05.648Z,71.50
2019-05-07T13:19:41.885Z,70.80
2019-05-07T13:22:14.261Z,70.50
2019-05-07T13:24:46.868Z,70.80
2019-05-07T13:27:19.544Z,70.90
2019-05-07T13:29:56.650Z,70.60
2019-05-07T13:32:32.002Z,71.40
2019-05-07T13:35:06.928Z,72.20
2019-05-07T13:37:41.809Z,71.30
2019-05-07T13:40:16.113Z,70.70
2019-05-07T13:42:55.057Z,70.60
2019-05-07T13:45:34.318Z,70.50
2019-05-07T13:48:08.480Z,70.00
2019-05-07T13:50:41.972Z,69.70
2019-05-07T13:53:14.785Z,71.90
2019-05-07T13:55:47.317Z,72.30
2019-05-07T13:58:19.077Z,72.20
2019-05-07T14:00:58.277Z,72.80
2019-05-07T14:06:42.568Z,73.40
2019-05-07T14:09:26.576Z,72.80
2019-05-07T14:12:01.774Z,73.30
2019-05-07T14:14:34.487Z,73.10
2019-05-07T14:17:07.497Z,73.20
2019-05-07T14:19:42.118Z,73.00
2019-05-07T14:22:18.986Z,73.00
2019-05-07T14:24:50.349Z,73.00
2019-05-07T14:27:26.220Z,72.50
2019-05-07T14:30:02.498Z,72.20
2019-05-07T14:32:46.822Z,72.00
2019-05-07T14:35:22.722Z,72.00
2019-05-07T14:37:57.952Z,71.90
2019-05-07T14:40:32.552Z,71.60
2019-05-07T14:43:08.740Z,71.80
2019-05-07T14:45:44.991Z,71.60
2019-05-07T14:48:22.409Z,71.50
2019-05-07T14:50:58.626Z,71.60
2019-05-07T14:53:32.851Z,71.50
2019-05-07T14:56:06.468Z,71.40
2019-05-07T14:58:38.867Z,71.50
2019-05-07T15:01:11.772Z,71.50
2019-05-07T15:03:46.130Z,71.40
2019-05-07T15:06:18.641Z,71.10
2019-05-07T15:08:52.219Z,71.00
2019-05-07T15:11:25.276Z,70.90
2019-05-07T15:13:59.965Z,71.20
2019-05-07T15:16:33.458Z,70.60
2019-05-07T15:19:09.650Z,71.10
2019-05-07T15:21:44.880Z,71.20
2019-05-07T15:24:17.787Z,70.70
2019-05-07T15:26:52.541Z,70.50
2019-05-07T15:29:26.066Z,70.90
2019-05-07T15:32:03.190Z,70.40
2019-05-07T15:34:34.468Z,69.80
2019-05-07T15:37:09.684Z,70.00
2019-05-07T15:39:42.646Z,69.70
2019-05-07T15:42:15.199Z,69.90
2019-05-07T15:44:50.124Z,69.60
2019-05-07T15:47:31.678Z,69.60
2019-05-07T15:50:03.932Z,69.40
2019-05-07T15:52:38.764Z,71.00
2019-05-07T15:55:11.919Z,71.40
2019-05-07T15:57:44.441Z,71.90
2019-05-07T16:00:18.384Z,72.10
2019-05-07T16:03:09.081Z,72.40
2019-05-07T16:05:42.242Z,73.40
2019-05-07T16:08:15.852Z,72.70
2019-05-07T16:10:48.927Z,72.60
2019-05-07T16:13:23.079Z,72.80
2019-05-07T16:15:57.777Z,72.80
2019-05-07T16:18:32.580Z,72.80
2019-05-07T16:21:05.236Z,72.60
2019-05-07T16:23:38.368Z,72.80
2019-05-07T16:26:12.957Z,72.70
2019-05-07T16:28:46.393Z,72.70
2019-05-07T16:31:21.983Z,72.60
2019-05-07T16:33:55.173Z,72.70
2019-05-07T16:36:32.754Z,72.70
2019-05-07T16:39:07.576Z,72.60
2019-05-07T16:41:42.264Z,72.80
2019-05-07T16:44:17.056Z,72.80
2019-05-07T16:46:49.628Z,72.80
2019-05-07T16:49:22.376Z,73.10
2019-05-07T16:51:53.977Z,72.90
2019-05-07T16:54:26.396Z,73.60
2019-05-07T16:57:19.039Z,73.00
2019-05-07T16:59:53.113Z,72.90
2019-05-07T17:02:25.746Z,73.20
2019-05-07T17:05:13.500Z,73.50
2019-05-07T17:08:02.457Z,73.70
2019-05-07T17:10:37.176Z,73.80
2019-05-07T17:13:12.545Z,73.90
2019-05-07T17:16:03.407Z,74.20
2019-05-07T17:18:36.097Z,74.20
2019-05-07T17:21:08.634Z,74.20
2019-05-07T17:23:44.671Z,74.40
2019-05-07T17:26:16.282Z,74.60
2019-05-07T17:28:48.824Z,74.60
2019-05-07T17:31:23.548Z,74.50
2019-05-07T17:33:55.446Z,74.70
2019-05-07T17:36:30.066Z,74.60
2019-05-07T17:39:04.526Z,74.60
2019-05-07T17:41:39.068Z,74.60
2019-05-07T17:44:11.906Z,74.70
2019-05-07T17:46:46.239Z,74.50
2019-05-07T17:49:17.947Z,74.50
2019-05-07T17:51:52.674Z,74.50
2019-05-07T17:54:25.057Z,74.80
2019-05-07T17:56:56.635Z,74.70
2019-05-07T17:59:28.069Z,74.40
2019-05-07T18:02:13.450Z,74.80
2019-05-07T18:04:51.472Z,75.60
2019-05-07T18:07:22.188Z,75.30
2019-05-07T18:09:57.620Z,74.90
2019-05-07T18:12:32.005Z,74.40
2019-05-07T18:15:03.544Z,74.10
2019-05-07T18:17:41.894Z,73.90
2019-05-07T18:20:14.070Z,74.40
2019-05-07T18:22:46.466Z,73.80
2019-05-07T18:25:19.174Z,74.80
2019-05-07T18:27:52.637Z,74.10
2019-05-07T18:30:24.594Z,73.80
2019-05-07T18:32:58.412Z,73.40
2019-05-07T18:35:32.120Z,73.10
2019-05-07T18:38:04.898Z,73.00
2019-05-07T18:40:37.883Z,72.80
2019-05-07T18:43:09.589Z,72.70
2019-05-07T18:45:41.522Z,72.60
2019-05-07T18:48:14.233Z,73.50
2019-05-07T18:50:47.012Z,74.70
2019-05-07T18:53:22.781Z,75.00
2019-05-07T18:55:55.145Z,75.00
2019-05-07T18:58:27.806Z,75.10
2019-05-07T19:01:03.353Z,75.10
2019-05-07T19:03:36.249Z,74.90
2019-05-07T19:06:13.475Z,75.10
2019-05-07T19:08:47.863Z,75.60
2019-05-07T19:11:22.798Z,75.20
2019-05-07T19:13:56.013Z,75.40
2019-05-07T19:16:26.049Z,75.10
2019-05-07T19:19:00.472Z,74.60
2019-05-07T19:21:33.071Z,74.30
2019-05-07T19:24:07.563Z,74.00
2019-05-07T19:26:39.255Z,74.30
2019-05-07T19:29:12.431Z,74.20
2019-05-07T19:31:46.893Z,74.50
2019-05-07T19:34:21.754Z,74.80
2019-05-07T19:36:55.760Z,74.40
2019-05-07T19:39:29.547Z,74.40
2019-05-07T19:42:02.794Z,74.50
2019-05-07T19:44:35.421Z,74.80
2019-05-07T19:47:08.705Z,74.60
2019-05-07T19:49:41.818Z,74.70
2019-05-07T19:52:14.579Z,75.00
2019-05-07T19:54:57.880Z,75.00
2019-05-07T19:57:21.142Z,75.10
2019-05-07T19:59:54.327Z,74.80
2019-05-07T20:02:28.747Z,74.70
2019-05-07T20:05:03.511Z,74.70
2019-05-07T20:07:37.390Z,74.70
2019-05-07T20:10:12.102Z,74.90
2019-05-07T20:12:43.589Z,74.80
2019-05-07T20:15:16.312Z,76.20
2019-05-07T20:17:48.256Z,75.80
2019-05-07T20:20:22.929Z,75.20
2019-05-07T20:22:56.378Z,75.20
2019-05-07T20:25:29.074Z,75.20
2019-05-07T20:28:02.205Z,75.10
2019-05-07T20:30:34.008Z,75.00
2019-05-07T20:33:08.686Z,74.80
2019-05-07T20:35:43.793Z,74.80
2019-05-07T20:38:15.388Z,74.80
2019-05-07T20:40:48.104Z,74.80
2019-05-07T20:43:22.988Z,74.80
2019-05-07T20:45:54.838Z,74.70
2019-05-07T20:48:26.446Z,74.90
2019-05-07T20:50:58.189Z,74.80
2019-05-07T20:53:52.263Z,75.00
2019-05-07T20:56:24.913Z,74.80
2019-05-07T20:58:59.383Z,74.90
2019-05-07T21:01:32.898Z,74.50
2019-05-07T21:04:06.023Z,74.90
2019-05-07T21:06:40.404Z,75.00
2019-05-07T21:09:12.658Z,74.80
2019-05-07T21:11:44.570Z,75.00
2019-05-07T21:14:16.840Z,74.90
2019-05-07T21:16:51.733Z,74.90
2019-05-07T21:19:23.359Z,75.10
2019-05-07T21:21:56.133Z,75.20
2019-05-07T21:24:27.788Z,75.30
2019-05-07T21:27:02.414Z,75.40
2019-05-07T21:29:35.728Z,76.40
2019-05-07T21:32:08.394Z,75.60
2019-05-07T21:34:42.084Z,75.40
2019-05-07T21:37:15.346Z,75.20
2019-05-07T21:39:46.916Z,75.40
2019-05-07T21:42:19.376Z,75.30
2019-05-07T21:44:52.648Z,75.20
2019-05-07T21:47:24.809Z,75.20
2019-05-07T21:49:57.537Z,75.30
2019-05-07T21:52:32.789Z,75.20
2019-05-07T21:55:08.781Z,75.10
2019-05-07T21:57:58.334Z,75.20
2019-05-07T22:00:32.782Z,75.40
2019-05-07T22:03:06.918Z,75.50
2019-05-07T22:05:39.655Z,75.40
2019-05-07T22:08:12.486Z,75.60
2019-05-07T22:10:47.268Z,75.60
2019-05-07T22:13:21.962Z,75.60
2019-05-07T22:15:55.195Z,75.60
2019-05-07T22:18:27.819Z,75.70
2019-05-07T22:21:02.715Z,75.70
2019-05-07T22:23:34.644Z,75.70
2019-05-07T22:26:19.112Z,75.90
2019-05-07T22:28:41.739Z,76.30
2019-05-07T22:31:20.540Z,76.30
2019-05-07T22:34:02.026Z,76.10
2019-05-07T22:36:34.247Z,76.10
2019-05-07T22:39:08.352Z,76.20
2019-05-07T22:41:42.320Z,76.90
2019-05-07T22:44:14.616Z,76.60
2019-05-07T22:46:46.259Z,76.60
2019-05-07T22:49:17.944Z,76.60
2019-05-07T22:51:54.585Z,76.60
2019-05-07T22:54:24.736Z,76.40
2019-05-07T22:56:59.051Z,76.50
2019-05-07T22:59:33.456Z,76.70
2019-05-07T23:02:06.955Z,76.70
2019-05-07T23:04:38.463Z,76.60
2019-05-07T23:07:12.660Z,76.50
2019-05-07T23:09:44.905Z,77.20
2019-05-07T23:12:17.636Z,77.20
2019-05-07T23:14:49.212Z,76.90
2019-05-07T23:17:23.974Z,76.80
2019-05-07T23:19:58.352Z,76.70
2019-05-07T23:22:33.036Z,76.60
2019-05-07T23:25:05.550Z,76.60
2019-05-07T23:27:38.391Z,76.30
2019-05-07T23:30:13.034Z,76.40
2019-05-07T23:32:47.633Z,76.50
2019-05-07T23:35:19.390Z,76.40
2019-05-07T23:37:53.024Z,76.40
2019-05-07T23:40:25.206Z,77.30
2019-05-07T23:42:59.129Z,76.50
2019-05-07T23:45:31.993Z,76.50
2019-05-07T23:48:06.590Z,76.40
2019-05-07T23:50:37.899Z,76.30
2019-05-07T23:53:12.942Z,76.20
2019-05-07T23:55:47.732Z,76.20
2019-05-07T23:58:19.341Z,76.70
